createdAt,value
2019-05-11T00:00:30.644Z,6.10
2019-05-11T00:02:59.079Z,6.87
2019-05-11T00:05:27.504Z,6.97
2019-05-11T00:07:55.959Z,7.03
2019-05-11T00:10:24.527Z,6.60
2019-05-11T00:12:52.953Z,7.07
2019-05-11T00:15:21.377Z,6.40
2019-05-11T00:17:49.823Z,6.67
2019-05-11T00:20:18.279Z,6.73
2019-05-11T00:22:46.739Z,6.97
2019-05-11T00:25:15.645Z,7.57
2019-05-11T00:27:44.105Z,7.33
2019-05-11T00:30:12.979Z,7.70
2019-05-11T00:32:41.408Z,7.53
2019-05-11T00:35:09.946Z,7.70
2019-05-11T00:37:38.392Z,8.27
2019-05-11T00:40:14.474Z,8.03
2019-05-11T00:42:37.332Z,8.30
2019-05-11T00:45:07.527Z,7.90
2019-05-11T00:47:35.976Z,7.90
2019-05-11T00:50:06.094Z,7.43
2019-05-11T00:52:34.535Z,7.70
2019-05-11T00:55:03.013Z,7.70
2019-05-11T00:57:31.515Z,7.60
2019-05-11T00:59:59.984Z,7.90
2019-05-11T01:02:28.453Z,7.80
2019-05-11T01:04:56.879Z,8.27
2019-05-11T01:07:25.326Z,8.17
2019-05-11T01:09:53.793Z,8.07
2019-05-11T01:12:22.239Z,7.60
2019-05-11T01:14:50.705Z,8.07
2019-05-11T01:17:19.133Z,8.00
2019-05-11T01:19:47.588Z,8.30
2019-05-11T01:22:16.049Z,8.97
2019-05-11T01:24:44.466Z,9.10
2019-05-11T01:27:12.914Z,8.50
2019-05-11T01:29:41.403Z,8.13
2019-05-11T01:32:09.872Z,8.80
2019-05-11T01:34:38.336Z,8.10
2019-05-11T01:37:06.768Z,8.37
2019-05-11T01:39:35.194Z,8.30
2019-05-11T01:42:03.619Z,8.03
2019-05-11T01:44:32.091Z,8.00
2019-05-11T01:47:00.567Z,7.67
2019-05-11T01:49:29.022Z,8.00
2019-05-11T01:51:57.401Z,7.53
2019-05-11T01:54:25.842Z,7.37
2019-05-11T01:56:54.212Z,7.27
2019-05-11T01:59:22.614Z,8.00
2019-05-11T02:01:51.039Z,7.50
2019-05-11T02:04:19.421Z,7.30
2019-05-11T02:06:47.815Z,7.90
2019-05-11T02:09:16.238Z,7.43
2019-05-11T02:11:44.621Z,7.93
2019-05-11T02:14:13.006Z,7.83
2019-05-11T02:16:41.396Z,8.27
2019-05-11T02:19:09.777Z,8.13
2019-05-11T02:21:38.186Z,8.23
2019-05-11T02:24:06.576Z,7.93
2019-05-11T02:26:34.973Z,8.53
2019-05-11T02:29:03.358Z,8.90
2019-05-11T02:31:31.848Z,8.87
2019-05-11T02:34:00.221Z,9.00
2019-05-11T02:36:28.622Z,8.53
2019-05-11T02:38:57.015Z,9.20
2019-05-11T02:41:35.583Z,9.50
2019-05-11T02:43:55.529Z,9.17
2019-05-11T02:46:23.936Z,10.43
2019-05-11T02:48:52.326Z,8.90
2019-05-11T02:51:21.162Z,9.40
2019-05-11T02:53:49.823Z,9.80
2019-05-11T02:56:18.212Z,9.00
2019-05-11T02:58:46.617Z,10.30
2019-05-11T03:01:15.003Z,10.10
2019-05-11T03:03:43.396Z,10.40
2019-05-11T03:06:11.786Z,9.47
2019-05-11T03:08:40.182Z,10.17
2019-05-11T03:11:08.577Z,9.77
2019-05-11T03:13:36.967Z,10.67
2019-05-11T03:16:05.439Z,10.67
2019-05-11T03:18:33.839Z,10.00
2019-05-11T03:21:02.227Z,10.60
2019-05-11T03:23:30.625Z,10.90
2019-05-11T03:25:59.008Z,10.53
2019-05-11T03:28:27.406Z,10.53
2019-05-11T03:30:55.816Z,11.03
2019-05-11T03:33:24.205Z,11.47
2019-05-11T03:35:52.581Z,11.03
2019-05-11T03:38:21.323Z,11.27
2019-05-11T03:40:49.710Z,11.80
2019-05-11T03:43:18.102Z,11.70
2019-05-11T03:45:46.494Z,11.37
2019-05-11T03:48:14.927Z,11.87
2019-05-11T03:50:43.291Z,11.83
2019-05-11T03:53:11.690Z,12.40
2019-05-11T03:55:40.101Z,12.93
2019-05-11T03:58:08.484Z,12.43
2019-05-11T04:00:36.912Z,12.97
2019-05-11T04:03:05.275Z,13.50
2019-05-11T04:05:33.665Z,13.07
2019-05-11T04:08:02.061Z,13.30
2019-05-11T04:10:30.458Z,13.50
2019-05-11T04:12:58.852Z,12.97
2019-05-11T04:15:27.313Z,13.00
2019-05-11T04:17:55.652Z,14.60
2019-05-11T04:20:24.040Z,13.87
2019-05-11T04:22:52.433Z,14.10
2019-05-11T04:25:20.830Z,14.27
2019-05-11T04:27:49.242Z,14.13
2019-05-11T04:30:17.850Z,15.97
2019-05-11T04:32:46.246Z,14.17
2019-05-11T04:35:14.713Z,14.83
2019-05-11T04:37:43.111Z,15.00
2019-05-11T04:40:11.769Z,14.97
2019-05-11T04:42:54.549Z,14.77
2019-05-11T04:45:10.528Z,14.77
2019-05-11T04:47:38.933Z,14.87
2019-05-11T04:50:08.071Z,15.53
2019-05-11T04:52:36.459Z,14.80
2019-05-11T04:55:05.601Z,15.23
2019-05-11T04:57:34.006Z,15.50
2019-05-11T05:00:02.411Z,15.17
2019-05-11T05:02:30.796Z,15.27
2019-05-11T05:04:59.196Z,14.73
2019-05-11T05:07:27.578Z,15.73
2019-05-11T05:09:55.967Z,16.50
2019-05-11T05:12:24.374Z,17.20
2019-05-11T05:14:52.773Z,16.33
2019-05-11T05:17:21.154Z,16.40
2019-05-11T05:19:49.605Z,15.70
2019-05-11T05:22:18.001Z,16.13
2019-05-11T05:24:46.401Z,17.67
2019-05-11T05:27:14.788Z,17.10
2019-05-11T05:29:43.193Z,17.67
2019-05-11T05:32:11.600Z,17.70
2019-05-11T05:34:39.997Z,17.23
2019-05-11T05:37:08.391Z,17.10
2019-05-11T05:39:36.829Z,17.53
2019-05-11T05:42:05.232Z,18.93
2019-05-11T05:44:33.659Z,18.07
2019-05-11T05:47:02.038Z,18.53
2019-05-11T05:49:30.466Z,19.17
2019-05-11T05:51:58.880Z,18.53
2019-05-11T05:54:27.313Z,18.07
2019-05-11T05:56:55.703Z,18.67
2019-05-11T05:59:24.169Z,19.50
2019-05-11T06:01:52.620Z,19.97
2019-05-11T06:04:20.960Z,19.63
2019-05-11T06:06:49.366Z,20.80
2019-05-11T06:09:17.777Z,20.57
2019-05-11T06:11:46.341Z,20.63
2019-05-11T06:14:14.742Z,20.63
2019-05-11T06:16:43.137Z,19.77
2019-05-11T06:19:11.537Z,19.20
2019-05-11T06:21:40.024Z,18.40
2019-05-11T06:24:08.911Z,18.97
2019-05-11T06:26:37.498Z,18.20
2019-05-11T06:29:05.895Z,18.80
2019-05-11T06:31:34.283Z,18.27
2019-05-11T06:34:02.677Z,17.47
2019-05-11T06:36:31.115Z,18.30
2019-05-11T06:38:59.511Z,17.30
2019-05-11T06:41:28.062Z,18.50
2019-05-11T06:44:01.844Z,19.07
2019-05-11T06:46:26.601Z,19.70
2019-05-11T06:48:55.001Z,20.27
2019-05-11T06:51:23.408Z,20.10
2019-05-11T06:53:51.790Z,21.07
2019-05-11T06:56:20.185Z,20.97
2019-05-11T06:58:48.577Z,20.87
2019-05-11T07:01:17.008Z,19.97
2019-05-11T07:03:45.384Z,21.27
2019-05-11T07:06:13.783Z,19.37
2019-05-11T07:08:42.254Z,20.40
2019-05-11T07:11:10.678Z,19.93
2019-05-11T07:13:39.119Z,18.40
2019-05-11T07:16:07.552Z,17.83
2019-05-11T07:18:35.971Z,17.53
2019-05-11T07:21:04.433Z,17.10
2019-05-11T07:23:32.828Z,16.90
2019-05-11T07:26:01.225Z,16.70
2019-05-11T07:28:29.629Z,15.97
2019-05-11T07:30:58.075Z,18.75
2019-05-11T07:33:28.565Z,16.80
2019-05-11T07:35:58.265Z,17.57
2019-05-11T07:38:27.821Z,16.70
2019-05-11T07:40:58.233Z,15.77
2019-05-11T07:43:28.708Z,15.70
2019-05-11T07:45:58.473Z,15.97
2019-05-11T07:48:27.871Z,16.07
2019-05-11T07:50:58.479Z,16.13
2019-05-11T07:53:27.885Z,15.73
2019-05-11T07:55:57.757Z,15.83
2019-05-11T07:58:28.522Z,16.23
2019-05-11T08:00:58.105Z,16.40
2019-05-11T08:03:28.395Z,16.13
2019-05-11T08:05:58.226Z,15.00
2019-05-11T08:08:28.346Z,14.40
2019-05-11T08:10:58.692Z,14.67
2019-05-11T08:13:28.245Z,12.80
2019-05-11T08:15:57.843Z,8.70
2019-05-11T08:18:28.215Z,6.33
2019-05-11T08:20:58.345Z,6.70
2019-05-11T08:23:28.546Z,5.70
2019-05-11T08:25:58.143Z,4.63
2019-05-11T08:28:28.709Z,4.93
2019-05-11T08:30:57.934Z,3.83
2019-05-11T08:33:28.399Z,3.53
2019-05-11T08:35:58.305Z,3.20
2019-05-11T08:38:28.559Z,2.80
2019-05-11T08:40:59.021Z,3.23
2019-05-11T08:43:28.530Z,2.77
2019-05-11T08:45:57.830Z,2.87
2019-05-11T08:48:28.315Z,2.60
2019-05-11T08:50:58.218Z,2.60
2019-05-11T08:53:28.429Z,2.33
2019-05-11T08:55:58.853Z,2.80
2019-05-11T08:58:27.819Z,2.40
2019-05-11T09:00:58.241Z,2.33
2019-05-11T09:03:28.442Z,2.13
2019-05-11T09:05:57.948Z,2.47
2019-05-11T09:08:28.297Z,2.30
2019-05-11T09:10:58.230Z,2.07
2019-05-11T09:13:27.961Z,2.00
2019-05-11T09:15:58.678Z,2.10
2019-05-11T09:18:28.000Z,2.10
2019-05-11T09:20:57.709Z,2.07
2019-05-11T09:23:34.731Z,2.00
2019-05-11T09:25:58.385Z,1.90
2019-05-11T09:28:26.416Z,1.70
2019-05-11T09:30:54.808Z,1.80
2019-05-11T09:33:23.255Z,1.80
2019-05-11T09:35:53.537Z,1.90
2019-05-11T09:38:21.762Z,1.90
2019-05-11T09:40:50.157Z,1.60
2019-05-11T09:43:18.554Z,1.80
2019-05-11T09:45:51.095Z,1.90
2019-05-11T09:48:18.023Z,1.90
2019-05-11T09:50:48.097Z,1.73
2019-05-11T09:53:17.682Z,1.60
2019-05-11T09:55:48.139Z,1.50
2019-05-11T09:58:19.573Z,1.90
2019-05-11T10:00:47.928Z,1.85
2019-05-11T10:03:18.661Z,1.73
2019-05-11T10:05:48.728Z,1.90
2019-05-11T10:08:18.344Z,1.60
2019-05-11T10:10:48.812Z,1.87
2019-05-11T10:13:18.555Z,1.90
2019-05-11T10:16:00.918Z,2.17
2019-05-11T10:18:18.596Z,2.10
2019-05-11T10:20:48.135Z,1.97
2019-05-11T10:23:18.578Z,2.03
2019-05-11T10:25:48.090Z,2.20
2019-05-11T10:28:17.882Z,1.93
2019-05-11T10:30:48.533Z,1.90
2019-05-11T10:33:18.743Z,1.83
2019-05-11T10:35:48.297Z,1.83
2019-05-11T10:38:17.953Z,2.20
2019-05-11T10:40:48.011Z,1.73
2019-05-11T10:43:18.346Z,1.90
2019-05-11T10:45:48.390Z,1.60
2019-05-11T10:48:17.720Z,2.10
2019-05-11T10:50:48.442Z,1.33
2019-05-11T10:53:18.666Z,1.10
2019-05-11T10:55:48.036Z,1.27
2019-05-11T10:58:18.378Z,1.00
2019-05-11T11:00:48.089Z,1.10
2019-05-11T11:03:17.912Z,1.10
2019-05-11T11:05:48.596Z,1.30
2019-05-11T11:08:18.598Z,1.20
2019-05-11T11:10:48.371Z,1.40
2019-05-11T11:13:18.834Z,1.50
2019-05-11T11:15:48.493Z,1.60
2019-05-11T11:18:18.853Z,1.73
2019-05-11T11:20:48.838Z,1.60
2019-05-11T11:23:17.891Z,1.80
2019-05-11T11:25:48.188Z,1.50
2019-05-11T11:28:17.518Z,1.57
2019-05-11T11:30:48.087Z,1.57
2019-05-11T11:33:18.388Z,1.50
2019-05-11T11:35:47.678Z,1.73
2019-05-11T11:38:18.010Z,1.60
2019-05-11T11:40:48.153Z,1.50
2019-05-11T11:43:18.047Z,1.73
2019-05-11T11:45:48.444Z,1.50
2019-05-11T11:48:18.936Z,1.37
2019-05-11T11:50:48.047Z,1.80
2019-05-11T11:53:18.730Z,1.70
2019-05-11T11:55:48.149Z,1.87
2019-05-11T11:58:23.124Z,1.40
2019-05-11T12:00:48.183Z,1.67
2019-05-11T12:03:18.534Z,1.50
2019-05-11T12:05:47.717Z,1.40
2019-05-11T12:08:18.604Z,1.80
2019-05-11T12:10:48.382Z,1.50
2019-05-11T12:13:18.638Z,1.73
2019-05-11T12:15:48.281Z,1.70
2019-05-11T12:18:18.507Z,1.63
2019-05-11T12:20:48.082Z,1.50
2019-05-11T12:23:17.997Z,1.33
2019-05-11T12:25:48.679Z,1.50
2019-05-11T12:28:18.395Z,1.60
2019-05-11T12:30:48.162Z,1.50
2019-05-11T12:33:18.661Z,1.40
2019-05-11T12:35:48.171Z,1.70
2019-05-11T12:38:18.295Z,1.60
2019-05-11T12:40:47.693Z,1.50
2019-05-11T12:43:18.396Z,1.57
2019-05-11T12:45:48.182Z,1.70
2019-05-11T12:48:18.048Z,1.47
2019-05-11T12:50:48.426Z,1.57
2019-05-11T12:53:18.613Z,1.50
2019-05-11T12:55:48.381Z,1.50
2019-05-11T12:58:18.126Z,1.30
2019-05-11T13:00:47.979Z,1.50
2019-05-11T13:03:18.722Z,1.07
2019-05-11T13:05:48.482Z,0.80
2019-05-11T13:08:18.450Z,0.80
2019-05-11T13:10:47.905Z,1.33
2019-05-11T13:13:18.243Z,2.00
2019-05-11T13:15:47.953Z,1.53
2019-05-11T13:18:18.401Z,2.07
2019-05-11T13:20:48.245Z,1.50
2019-05-11T13:23:18.569Z,1.60
2019-05-11T13:25:48.013Z,1.40
2019-05-11T13:28:17.916Z,2.23
2019-05-11T13:30:48.622Z,2.93
2019-05-11T13:33:18.770Z,2.20
2019-05-11T13:35:48.241Z,2.60
2019-05-11T13:38:17.844Z,2.17
2019-05-11T13:40:48.533Z,2.60
2019-05-11T13:43:18.616Z,2.40
2019-05-11T13:45:47.899Z,2.60
2019-05-11T13:48:17.684Z,2.40
2019-05-11T13:50:48.005Z,2.27
2019-05-11T13:53:18.396Z,2.17
2019-05-11T13:55:48.123Z,2.20
2019-05-11T13:58:19.504Z,3.27
2019-05-11T14:00:48.076Z,3.10
2019-05-11T14:03:18.437Z,4.27
2019-05-11T14:05:48.366Z,3.87
2019-05-11T14:08:18.552Z,2.80
2019-05-11T14:10:48.851Z,3.00
2019-05-11T14:13:18.208Z,2.50
2019-05-11T14:15:48.160Z,2.10
2019-05-11T14:18:18.162Z,2.72
2019-05-11T14:20:48.307Z,2.40
2019-05-11T14:23:18.240Z,2.57
2019-05-11T14:25:48.691Z,2.47
2019-05-11T14:28:17.942Z,1.80
2019-05-11T14:30:48.551Z,2.40
2019-05-11T14:33:18.029Z,2.90
2019-05-11T14:35:48.747Z,2.87
2019-05-11T14:38:18.732Z,3.60
2019-05-11T14:40:48.078Z,3.23
2019-05-11T14:43:18.578Z,3.53
2019-05-11T14:45:48.635Z,3.37
2019-05-11T14:48:24.104Z,3.93
2019-05-11T14:50:48.979Z,4.40
2019-05-11T14:53:17.888Z,3.50
2019-05-11T14:55:48.592Z,3.77
2019-05-11T14:58:19.600Z,3.80
2019-05-11T15:00:48.707Z,3.97
2019-05-11T15:03:18.226Z,3.17
2019-05-11T15:05:47.856Z,3.77
2019-05-11T15:08:18.103Z,2.80
2019-05-11T15:10:48.632Z,3.13
2019-05-11T15:13:18.574Z,4.93
2019-05-11T15:15:48.789Z,5.47
2019-05-11T15:18:17.757Z,5.50
2019-05-11T15:20:47.958Z,3.98
2019-05-11T15:23:18.017Z,3.87
2019-05-11T15:25:48.573Z,3.60
2019-05-11T15:28:18.130Z,3.63
2019-05-11T15:30:48.256Z,3.80
2019-05-11T15:33:18.302Z,3.50
2019-05-11T15:35:47.854Z,3.83
2019-05-11T15:38:17.857Z,4.37
2019-05-11T15:40:48.607Z,4.25
2019-05-11T15:43:17.927Z,4.37
2019-05-11T15:45:48.572Z,3.77
2019-05-11T15:48:18.485Z,3.83
2019-05-11T15:50:48.602Z,4.20
2019-05-11T15:53:17.802Z,4.83
2019-05-11T15:55:46.344Z,5.33
2019-05-11T15:58:14.728Z,4.07
2019-05-11T16:00:43.111Z,3.60
2019-05-11T16:03:11.508Z,20.50
2019-05-11T16:05:39.940Z,15.73
2019-05-11T16:08:08.554Z,14.33
2019-05-11T16:10:38.441Z,9.27
2019-05-11T16:13:09.157Z,7.93
2019-05-11T16:15:38.408Z,12.27
2019-05-11T16:18:08.316Z,6.73
2019-05-11T16:20:36.859Z,10.03
2019-05-11T16:23:05.247Z,8.37
2019-05-11T16:25:33.634Z,5.40
2019-05-11T16:28:02.029Z,4.70
2019-05-11T16:30:30.410Z,3.00
2019-05-11T16:32:58.795Z,3.03
2019-05-11T16:35:28.024Z,2.63
2019-05-11T16:37:58.903Z,2.37
2019-05-11T16:40:26.700Z,1.83
2019-05-11T16:42:58.229Z,1.70
2019-05-11T16:45:25.191Z,1.53
2019-05-11T16:47:53.574Z,2.30
2019-05-11T16:50:22.009Z,4.93
2019-05-11T16:52:50.393Z,2.40
2019-05-11T16:55:18.773Z,2.67
2019-05-11T16:57:48.379Z,2.60
2019-05-11T17:00:17.561Z,2.00
2019-05-11T17:02:48.656Z,2.00
2019-05-11T17:05:25.734Z,2.10
2019-05-11T17:07:48.297Z,2.25
2019-05-11T17:10:17.926Z,2.00
2019-05-11T17:12:48.422Z,2.00
2019-05-11T17:15:18.615Z,2.10
2019-05-11T17:17:48.631Z,4.17
2019-05-11T17:20:18.733Z,3.03
2019-05-11T17:22:48.189Z,3.20
2019-05-11T17:25:19.015Z,2.20
2019-05-11T17:27:48.738Z,2.00
2019-05-11T17:30:19.326Z,2.00
2019-05-11T17:32:49.237Z,1.80
2019-05-11T17:35:17.784Z,1.90
2019-05-11T17:37:48.386Z,1.50
2019-05-11T17:40:20.686Z,1.20
2019-05-11T17:42:47.958Z,1.00
2019-05-11T17:45:18.895Z,1.10
2019-05-11T17:47:47.005Z,1.00
2019-05-11T17:50:15.495Z,0.70
2019-05-11T17:52:43.880Z,0.80
2019-05-11T17:55:12.406Z,0.60
2019-05-11T17:57:40.961Z,0.60
2019-05-11T18:00:10.182Z,0.53
2019-05-11T18:02:39.130Z,0.70
2019-05-11T18:05:08.906Z,0.60
2019-05-11T18:07:38.600Z,0.63
2019-05-11T18:10:08.315Z,0.87
2019-05-11T18:12:38.849Z,0.80
2019-05-11T18:15:08.325Z,0.80
2019-05-11T18:17:36.874Z,1.03
2019-05-11T18:20:17.295Z,1.02
2019-05-11T18:22:39.085Z,1.00
2019-05-11T18:25:08.903Z,0.80
2019-05-11T18:27:38.696Z,1.00
2019-05-11T18:30:08.751Z,1.00
2019-05-11T18:32:39.701Z,1.13
2019-05-11T18:35:08.677Z,1.10
2019-05-11T18:37:38.946Z,1.23
2019-05-11T18:40:08.209Z,0.90
2019-05-11T18:42:38.267Z,0.80
2019-05-11T18:45:08.330Z,0.80
2019-05-11T18:47:38.158Z,0.80
2019-05-11T18:50:07.308Z,1.02
2019-05-11T18:52:35.705Z,1.13
2019-05-11T18:55:04.632Z,1.50
2019-05-11T18:57:39.656Z,1.40
2019-05-11T19:00:08.992Z,2.17
2019-05-11T19:02:38.532Z,1.53
2019-05-11T19:05:11.750Z,2.70
2019-05-11T19:07:42.058Z,2.50
2019-05-11T19:10:10.446Z,1.80
2019-05-11T19:12:38.825Z,1.40
2019-05-11T19:15:13.048Z,0.80
2019-05-11T19:17:41.429Z,0.80
2019-05-11T19:20:10.162Z,0.90
2019-05-11T19:22:38.926Z,1.95
2019-05-11T19:25:09.095Z,1.20
2019-05-11T19:27:37.625Z,3.10
2019-05-11T19:30:09.420Z,2.03
2019-05-11T19:32:38.287Z,1.50
2019-05-11T19:35:09.002Z,1.50
2019-05-11T19:37:38.925Z,1.93
2019-05-11T19:40:09.198Z,1.43
2019-05-11T19:42:54.721Z,1.20
2019-05-11T19:45:23.470Z,1.40
2019-05-11T19:47:51.895Z,1.57
2019-05-11T19:50:20.315Z,1.83
2019-05-11T19:52:48.774Z,1.95
2019-05-11T19:55:17.998Z,1.80
2019-05-11T19:57:48.331Z,1.60
2019-05-11T20:00:18.484Z,1.30
2019-05-11T20:02:47.089Z,1.90
2019-05-11T20:05:15.498Z,1.83
2019-05-11T20:07:44.871Z,1.60
2019-05-11T20:10:13.353Z,1.37
2019-05-11T20:12:41.970Z,1.20
2019-05-11T20:15:10.551Z,1.53
2019-05-11T20:17:39.297Z,1.57
2019-05-11T20:20:08.911Z,1.60
2019-05-11T20:22:39.010Z,1.83
2019-05-11T20:25:09.658Z,1.67
2019-05-11T20:27:38.807Z,2.00
2019-05-11T20:30:08.621Z,1.83
2019-05-11T20:32:38.851Z,2.27
2019-05-11T20:35:08.463Z,1.83
2019-05-11T20:37:38.389Z,2.03
2019-05-11T20:40:12.111Z,1.77
2019-05-11T20:42:40.541Z,2.77
2019-05-11T20:45:09.158Z,2.30
2019-05-11T20:47:43.284Z,2.30
2019-05-11T20:50:11.909Z,2.47
2019-05-11T20:52:41.918Z,2.20
2019-05-11T20:55:10.297Z,2.47
2019-05-11T20:57:39.598Z,2.97
2019-05-11T21:00:09.762Z,2.57
2019-05-11T21:02:38.386Z,2.50
2019-05-11T21:05:09.022Z,2.70
2019-05-11T21:07:38.763Z,2.80
2019-05-11T21:10:09.395Z,2.40
2019-05-11T21:12:38.928Z,2.43
2019-05-11T21:15:10.527Z,2.50
2019-05-11T21:17:38.911Z,2.30
2019-05-11T21:20:08.935Z,1.90
2019-05-11T21:22:40.046Z,2.37
2019-05-11T21:25:09.105Z,2.30
2019-05-11T21:27:38.382Z,2.00
2019-05-11T21:30:09.080Z,2.40
2019-05-11T21:32:38.723Z,2.33
2019-05-11T21:35:08.805Z,2.60
2019-05-11T21:37:38.718Z,2.50
2019-05-11T21:40:09.128Z,2.57
2019-05-11T21:42:39.364Z,2.43
2019-05-11T21:45:09.469Z,2.50
2019-05-11T21:47:38.878Z,2.80
2019-05-11T21:50:09.252Z,3.07
2019-05-11T21:52:38.593Z,3.20
2019-05-11T21:55:09.459Z,3.70
2019-05-11T21:57:38.277Z,3.52
2019-05-11T22:00:11.216Z,3.40
2019-05-11T22:02:39.611Z,3.43
2019-05-11T22:05:09.724Z,3.80
2019-05-11T22:07:41.583Z,4.53
2019-05-11T22:10:09.475Z,4.50
2019-05-11T22:12:39.138Z,4.23
2019-05-11T22:15:09.129Z,4.33
2019-05-11T22:17:39.373Z,4.30
2019-05-11T22:20:08.898Z,4.50
2019-05-11T22:22:38.862Z,4.47
2019-05-11T22:25:08.514Z,4.20
2019-05-11T22:27:38.875Z,4.43
2019-05-11T22:30:12.007Z,4.30
2019-05-11T22:32:40.827Z,4.07
2019-05-11T22:35:09.651Z,3.60
2019-05-11T22:37:39.034Z,4.27
2019-05-11T22:40:08.735Z,3.60
2019-05-11T22:42:37.430Z,4.60
2019-05-11T22:45:08.371Z,4.27
2019-05-11T22:47:39.420Z,4.73
2019-05-11T22:50:10.469Z,4.60
2019-05-11T22:52:40.396Z,4.60
2019-05-11T22:55:11.852Z,4.60
2019-05-11T22:57:40.310Z,5.47
2019-05-11T23:00:10.623Z,5.87
2019-05-11T23:02:39.054Z,4.70
2019-05-11T23:05:08.718Z,5.27
2019-05-11T23:07:41.074Z,4.90
2019-05-11T23:10:08.867Z,5.77
2019-05-11T23:12:38.357Z,6.00
2019-05-11T23:15:14.738Z,5.60
2019-05-11T23:17:43.313Z,5.73
2019-05-11T23:20:12.177Z,5.67
2019-05-11T23:22:57.585Z,6.17
2019-05-11T23:25:19.997Z,6.00
2019-05-11T23:27:48.964Z,6.07
2019-05-11T23:30:19.692Z,6.77
2019-05-11T23:32:48.657Z,6.80
2019-05-11T23:35:18.708Z,7.08
2019-05-11T23:37:49.532Z,7.10
2019-05-11T23:40:19.500Z,7.37
2019-05-11T23:42:48.947Z,7.73
2019-05-11T23:45:19.084Z,7.87
2019-05-11T23:47:48.710Z,8.40
2019-05-11T23:50:18.869Z,8.30
2019-05-11T23:52:50.123Z,7.97
2019-05-11T23:55:19.079Z,8.30
2019-05-11T23:57:48.680Z,8.27
